sensor_id;sensor_type;location;lat;lon;timestamp;temperature;humidity
6520;DHT22;3293;51.690;5.982;2023-08-21T00:01:52;19.10;99.90
6520;DHT22;3293;51.690;5.982;2023-08-21T00:06:53;19.00;99.90
6520;DHT22;3293;51.690;5.982;2023-08-21T00:11:53;19.00;99.90
6520;DHT22;3293;51.690;5.982;2023-08-21T00:16:53;18.90;99.90
6520;DHT22;3293;51.690;5.982;2023-08-21T00:21:53;18.70;99.90
6520;DHT22;3293;51.690;5.982;2023-08-21T00:26:53;18.70;99.90
6520;DHT22;3293;51.690;5.982;2023-08-21T00:31:54;18.70;99.90
6520;DHT22;3293;51.690;5.982;2023-08-21T00:36:54;18.70;99.90
6520;DHT22;3293;51.690;5.982;2023-08-21T00:41:54;18.60;99.90
6520;DHT22;3293;51.690;5.982;2023-08-21T00:46:55;18.40;99.90
6520;DHT22;3293;51.690;5.982;2023-08-21T00:51:56;18.30;99.90
6520;DHT22;3293;51.690;5.982;2023-08-21T00:56:56;18.20;99.90
6520;DHT22;3293;51.690;5.982;2023-08-21T01:01:57;18.10;99.90
6520;DHT22;3293;51.690;5.982;2023-08-21T01:06:58;18.00;99.90
6520;DHT22;3293;51.690;5.982;2023-08-21T01:17:22;18.00;99.90
6520;DHT22;3293;51.690;5.982;2023-08-21T01:22:41;17.90;99.90
6520;DHT22;3293;51.690;5.982;2023-08-21T01:27:48;17.90;99.90
6520;DHT22;3293;51.690;5.982;2023-08-21T01:33:07;17.90;99.90
6520;DHT22;3293;51.690;5.982;2023-08-21T01:38:10;17.90;99.90
6520;DHT22;3293;51.690;5.982;2023-08-21T01:43:10;17.90;99.90
6520;DHT22;3293;51.690;5.982;2023-08-21T01:48:10;17.80;99.90
6520;DHT22;3293;51.690;5.982;2023-08-21T01:53:12;17.80;99.90
6520;DHT22;3293;51.690;5.982;2023-08-21T01:58:11;17.90;99.90
6520;DHT22;3293;51.690;5.982;2023-08-21T02:03:11;18.00;99.90
6520;DHT22;3293;51.690;5.982;2023-08-21T02:08:13;18.00;99.90
6520;DHT22;3293;51.690;5.982;2023-08-21T02:13:13;18.10;99.90
6520;DHT22;3293;51.690;5.982;2023-08-21T02:18:13;18.00;99.90
6520;DHT22;3293;51.690;5.982;2023-08-21T02:23:13;17.90;99.90
6520;DHT22;3293;51.690;5.982;2023-08-21T02:28:13;17.90;99.90
6520;DHT22;3293;51.690;5.982;2023-08-21T02:33:13;17.80;99.90
6520;DHT22;3293;51.690;5.982;2023-08-21T02:38:13;17.70;99.90
6520;DHT22;3293;51.690;5.982;2023-08-21T02:43:13;17.60;99.90
6520;DHT22;3293;51.690;5.982;2023-08-21T02:48:13;17.70;99.90
6520;DHT22;3293;51.690;5.982;2023-08-21T02:53:13;17.60;99.90
6520;DHT22;3293;51.690;5.982;2023-08-21T02:58:14;17.50;99.90
6520;DHT22;3293;51.690;5.982;2023-08-21T03:03:14;17.40;99.90
6520;DHT22;3293;51.690;5.982;2023-08-21T03:08:14;17.30;99.90
6520;DHT22;3293;51.690;5.982;2023-08-21T03:13:14;17.10;99.90
6520;DHT22;3293;51.690;5.982;2023-08-21T03:18:14;17.10;99.90
6520;DHT22;3293;51.690;5.982;2023-08-21T03:23:14;17.00;99.90
6520;DHT22;3293;51.690;5.982;2023-08-21T03:28:14;16.90;99.90
6520;DHT22;3293;51.690;5.982;2023-08-21T03:33:14;17.00;99.90
6520;DHT22;3293;51.690;5.982;2023-08-21T03:38:14;17.00;99.90
6520;DHT22;3293;51.690;5.982;2023-08-21T03:43:14;17.10;99.90
6520;DHT22;3293;51.690;5.982;2023-08-21T03:48:14;17.20;99.90
6520;DHT22;3293;51.690;5.982;2023-08-21T03:53:14;17.30;99.90
6520;DHT22;3293;51.690;5.982;2023-08-21T03:58:14;17.40;99.90
6520;DHT22;3293;51.690;5.982;2023-08-21T04:03:14;17.40;99.90
6520;DHT22;3293;51.690;5.982;2023-08-21T04:08:14;17.40;99.90
6520;DHT22;3293;51.690;5.982;2023-08-21T04:13:14;17.30;99.90
6520;DHT22;3293;51.690;5.982;2023-08-21T04:18:14;17.10;99.90
6520;DHT22;3293;51.690;5.982;2023-08-21T04:23:15;16.90;99.90
6520;DHT22;3293;51.690;5.982;2023-08-21T04:28:15;16.90;99.90
6520;DHT22;3293;51.690;5.982;2023-08-21T04:33:15;16.80;99.90
6520;DHT22;3293;51.690;5.982;2023-08-21T04:38:15;16.80;99.90
6520;DHT22;3293;51.690;5.982;2023-08-21T04:43:15;16.70;99.90
6520;DHT22;3293;51.690;5.982;2023-08-21T04:48:15;16.70;99.90
6520;DHT22;3293;51.690;5.982;2023-08-21T04:53:14;16.80;99.90
6520;DHT22;3293;51.690;5.982;2023-08-21T04:58:14;16.90;99.90
6520;DHT22;3293;51.690;5.982;2023-08-21T05:03:15;16.90;99.90
6520;DHT22;3293;51.690;5.982;2023-08-21T05:08:15;16.80;99.90
6520;DHT22;3293;51.690;5.982;2023-08-21T05:13:15;16.80;99.90
6520;DHT22;3293;51.690;5.982;2023-08-21T05:18:17;16.90;99.90
6520;DHT22;3293;51.690;5.982;2023-08-21T05:23:17;17.10;99.90
6520;DHT22;3293;51.690;5.982;2023-08-21T05:28:18;17.30;99.90
6520;DHT22;3293;51.690;5.982;2023-08-21T05:33:18;17.50;99.90
6520;DHT22;3293;51.690;5.982;2023-08-21T05:38:18;17.70;99.90
6520;DHT22;3293;51.690;5.982;2023-08-21T05:43:18;17.90;99.90
6520;DHT22;3293;51.690;5.982;2023-08-21T05:48:18;18.10;99.90
6520;DHT22;3293;51.690;5.982;2023-08-21T05:53:18;18.30;99.90
6520;DHT22;3293;51.690;5.982;2023-08-21T05:58:18;18.60;99.90
6520;DHT22;3293;51.690;5.982;2023-08-21T06:03:18;19.00;99.90
6520;DHT22;3293;51.690;5.982;2023-08-21T06:08:18;19.20;99.90
6520;DHT22;3293;51.690;5.982;2023-08-21T06:13:20;19.20;99.90
6520;DHT22;3293;51.690;5.982;2023-08-21T06:18:20;19.20;99.90
6520;DHT22;3293;51.690;5.982;2023-08-21T06:23:21;19.80;99.90
6520;DHT22;3293;51.690;5.982;2023-08-21T06:28:21;20.40;99.90
6520;DHT22;3293;51.690;5.982;2023-08-21T06:33:21;20.80;99.90
6520;DHT22;3293;51.690;5.982;2023-08-21T06:38:21;20.80;99.90
6520;DHT22;3293;51.690;5.982;2023-08-21T06:43:21;20.80;99.90
6520;DHT22;3293;51.690;5.982;2023-08-21T06:48:23;20.80;98.50
6520;DHT22;3293;51.690;5.982;2023-08-21T06:53:24;21.10;99.20
6520;DHT22;3293;51.690;5.982;2023-08-21T06:58:24;21.40;98.40
6520;DHT22;3293;51.690;5.982;2023-08-21T07:03:24;21.80;95.80
6520;DHT22;3293;51.690;5.982;2023-08-21T07:08:24;24.10;91.40
6520;DHT22;3293;51.690;5.982;2023-08-21T07:13:24;26.10;70.70
6520;DHT22;3293;51.690;5.982;2023-08-21T07:18:24;25.70;66.00
6520;DHT22;3293;51.690;5.982;2023-08-21T07:23:25;24.90;68.60
6520;DHT22;3293;51.690;5.982;2023-08-21T07:28:25;26.50;60.80
6520;DHT22;3293;51.690;5.982;2023-08-21T07:33:26;27.70;51.10
6520;DHT22;3293;51.690;5.982;2023-08-21T07:38:26;28.50;42.20
6520;DHT22;3293;51.690;5.982;2023-08-21T07:43:26;27.80;43.10
6520;DHT22;3293;51.690;5.982;2023-08-21T07:48:26;27.90;45.00
6520;DHT22;3293;51.690;5.982;2023-08-21T07:53:26;28.00;41.40
6520;DHT22;3293;51.690;5.982;2023-08-21T07:58:27;28.40;38.60
6520;DHT22;3293;51.690;5.982;2023-08-21T08:03:27;28.40;33.70
6520;DHT22;3293;51.690;5.982;2023-08-21T08:08:27;28.60;34.80
6520;DHT22;3293;51.690;5.982;2023-08-21T08:13:29;30.20;33.10
6520;DHT22;3293;51.690;5.982;2023-08-21T08:18:29;31.40;24.90
6520;DHT22;3293;51.690;5.982;2023-08-21T08:23:29;31.70;20.40
6520;DHT22;3293;51.690;5.982;2023-08-21T08:28:29;32.10;19.80
6520;DHT22;3293;51.690;5.982;2023-08-21T08:33:29;32.70;17.80
6520;DHT22;3293;51.690;5.982;2023-08-21T08:38:29;32.10;18.00
6520;DHT22;3293;51.690;5.982;2023-08-21T08:43:30;31.70;19.40
6520;DHT22;3293;51.690;5.982;2023-08-21T08:48:30;32.20;17.60
6520;DHT22;3293;51.690;5.982;2023-08-21T08:53:30;32.80;16.50
6520;DHT22;3293;51.690;5.982;2023-08-21T08:58:30;33.30;15.00
6520;DHT22;3293;51.690;5.982;2023-08-21T09:03:30;33.60;14.80
6520;DHT22;3293;51.690;5.982;2023-08-21T09:08:31;34.20;13.50
6520;DHT22;3293;51.690;5.982;2023-08-21T09:13:31;33.10;15.70
6520;DHT22;3293;51.690;5.982;2023-08-21T09:18:34;32.90;16.70
6520;DHT22;3293;51.690;5.982;2023-08-21T09:23:35;33.60;16.30
6520;DHT22;3293;51.690;5.982;2023-08-21T09:28:35;34.10;14.60
6520;DHT22;3293;51.690;5.982;2023-08-21T09:33:36;34.20;15.40
6520;DHT22;3293;51.690;5.982;2023-08-21T09:38:38;34.10;13.50
6520;DHT22;3293;51.690;5.982;2023-08-21T09:43:42;33.10;15.80
6520;DHT22;3293;51.690;5.982;2023-08-21T09:48:46;32.30;16.70
6520;DHT22;3293;51.690;5.982;2023-08-21T09:53:50;31.20;20.00
6520;DHT22;3293;51.690;5.982;2023-08-21T09:58:53;30.20;24.40
6520;DHT22;3293;51.690;5.982;2023-08-21T10:03:54;29.50;25.10
6520;DHT22;3293;51.690;5.982;2023-08-21T10:08:57;29.40;24.00
6520;DHT22;3293;51.690;5.982;2023-08-21T10:13:58;29.10;27.30
6520;DHT22;3293;51.690;5.982;2023-08-21T10:19:03;29.00;25.30
6520;DHT22;3293;51.690;5.982;2023-08-21T10:24:05;29.00;23.90
6520;DHT22;3293;51.690;5.982;2023-08-21T10:29:06;28.30;32.90
6520;DHT22;3293;51.690;5.982;2023-08-21T10:34:10;28.10;33.10
6520;DHT22;3293;51.690;5.982;2023-08-21T10:39:22;28.10;31.10
6520;DHT22;3293;51.690;5.982;2023-08-21T10:44:52;27.80;32.00
6520;DHT22;3293;51.690;5.982;2023-08-21T10:50:04;27.40;32.80
6520;DHT22;3293;51.690;5.982;2023-08-21T10:55:05;27.50;33.60
6520;DHT22;3293;51.690;5.982;2023-08-21T11:00:07;27.40;33.20
6520;DHT22;3293;51.690;5.982;2023-08-21T11:05:12;27.40;30.50
6520;DHT22;3293;51.690;5.982;2023-08-21T11:10:17;27.30;35.90
6520;DHT22;3293;51.690;5.982;2023-08-21T11:15:18;27.30;36.90
6520;DHT22;3293;51.690;5.982;2023-08-21T11:20:18;27.30;33.80
6520;DHT22;3293;51.690;5.982;2023-08-21T11:25:18;27.20;33.90
6520;DHT22;3293;51.690;5.982;2023-08-21T11:30:18;27.10;30.20
6520;DHT22;3293;51.690;5.982;2023-08-21T11:35:19;27.00;27.00
6520;DHT22;3293;51.690;5.982;2023-08-21T11:40:19;26.90;27.30
6520;DHT22;3293;51.690;5.982;2023-08-21T11:45:22;26.90;27.10
6520;DHT22;3293;51.690;5.982;2023-08-21T11:50:22;26.90;28.40
6520;DHT22;3293;51.690;5.982;2023-08-21T11:55:22;27.00;28.70
6520;DHT22;3293;51.690;5.982;2023-08-21T12:00:29;26.90;27.50
6520;DHT22;3293;51.690;5.982;2023-08-21T12:05:30;26.90;31.50
6520;DHT22;3293;51.690;5.982;2023-08-21T12:10:31;27.00;31.20
6520;DHT22;3293;51.690;5.982;2023-08-21T12:15:31;26.90;30.40
6520;DHT22;3293;51.690;5.982;2023-08-21T12:20:31;27.00;29.60
6520;DHT22;3293;51.690;5.982;2023-08-21T12:25:32;26.90;29.80
6520;DHT22;3293;51.690;5.982;2023-08-21T12:30:32;26.90;33.30
6520;DHT22;3293;51.690;5.982;2023-08-21T12:35:33;26.90;35.40
6520;DHT22;3293;51.690;5.982;2023-08-21T12:40:33;26.90;35.30
6520;DHT22;3293;51.690;5.982;2023-08-21T12:45:33;26.60;38.40
6520;DHT22;3293;51.690;5.982;2023-08-21T12:50:33;26.60;39.70
6520;DHT22;3293;51.690;5.982;2023-08-21T12:55:33;26.50;37.70
6520;DHT22;3293;51.690;5.982;2023-08-21T13:00:34;26.50;38.00
6520;DHT22;3293;51.690;5.982;2023-08-21T13:05:34;26.50;41.40
6520;DHT22;3293;51.690;5.982;2023-08-21T13:10:34;26.80;39.50
6520;DHT22;3293;51.690;5.982;2023-08-21T13:15:34;27.20;38.20
6520;DHT22;3293;51.690;5.982;2023-08-21T13:20:34;27.30;31.80
6520;DHT22;3293;51.690;5.982;2023-08-21T13:25:35;27.30;30.20
6520;DHT22;3293;51.690;5.982;2023-08-21T13:30:35;27.30;33.40
6520;DHT22;3293;51.690;5.982;2023-08-21T13:35:35;27.30;35.10
6520;DHT22;3293;51.690;5.982;2023-08-21T13:40:35;27.20;34.50
6520;DHT22;3293;51.690;5.982;2023-08-21T13:45:35;27.10;35.20
6520;DHT22;3293;51.690;5.982;2023-08-21T13:50:36;27.10;37.40
6520;DHT22;3293;51.690;5.982;2023-08-21T13:55:36;27.20;36.70
6520;DHT22;3293;51.690;5.982;2023-08-21T14:00:36;27.30;33.00
6520;DHT22;3293;51.690;5.982;2023-08-21T14:05:37;27.20;31.90
6520;DHT22;3293;51.690;5.982;2023-08-21T14:10:37;27.00;32.50
6520;DHT22;3293;51.690;5.982;2023-08-21T14:15:37;26.80;33.80
6520;DHT22;3293;51.690;5.982;2023-08-21T14:20:37;26.80;33.20
6520;DHT22;3293;51.690;5.982;2023-08-21T14:25:38;26.80;32.90
6520;DHT22;3293;51.690;5.982;2023-08-21T14:30:38;26.80;34.10
6520;DHT22;3293;51.690;5.982;2023-08-21T14:35:38;26.60;38.60
6520;DHT22;3293;51.690;5.982;2023-08-21T14:40:38;26.60;35.70
6520;DHT22;3293;51.690;5.982;2023-08-21T14:45:38;26.60;35.40
6520;DHT22;3293;51.690;5.982;2023-08-21T14:50:38;26.60;35.10
6520;DHT22;3293;51.690;5.982;2023-08-21T14:55:38;26.50;37.70
6520;DHT22;3293;51.690;5.982;2023-08-21T15:00:38;26.50;39.40
6520;DHT22;3293;51.690;5.982;2023-08-21T15:05:38;26.60;39.30
6520;DHT22;3293;51.690;5.982;2023-08-21T15:10:38;26.60;35.70
6520;DHT22;3293;51.690;5.982;2023-08-21T15:15:38;26.60;31.50
6520;DHT22;3293;51.690;5.982;2023-08-21T15:20:38;26.50;32.60
6520;DHT22;3293;51.690;5.982;2023-08-21T15:25:39;26.50;34.20
6520;DHT22;3293;51.690;5.982;2023-08-21T15:30:39;26.60;33.30
6520;DHT22;3293;51.690;5.982;2023-08-21T15:35:39;26.60;32.70
6520;DHT22;3293;51.690;5.982;2023-08-21T15:40:39;26.60;34.60
6520;DHT22;3293;51.690;5.982;2023-08-21T15:45:40;26.50;31.40
6520;DHT22;3293;51.690;5.982;2023-08-21T15:50:40;26.40;31.80
6520;DHT22;3293;51.690;5.982;2023-08-21T15:55:40;26.30;30.60
6520;DHT22;3293;51.690;5.982;2023-08-21T16:00:40;26.10;31.90
6520;DHT22;3293;51.690;5.982;2023-08-21T16:05:40;26.00;30.00
6520;DHT22;3293;51.690;5.982;2023-08-21T16:10:40;25.90;30.60
6520;DHT22;3293;51.690;5.982;2023-08-21T16:15:41;25.80;31.20
6520;DHT22;3293;51.690;5.982;2023-08-21T16:20:41;25.70;33.00
6520;DHT22;3293;51.690;5.982;2023-08-21T16:25:41;25.60;30.10
6520;DHT22;3293;51.690;5.982;2023-08-21T16:30:40;25.40;29.50
6520;DHT22;3293;51.690;5.982;2023-08-21T16:35:41;25.30;30.00
6520;DHT22;3293;51.690;5.982;2023-08-21T16:40:41;25.30;28.90
6520;DHT22;3293;51.690;5.982;2023-08-21T16:45:41;25.20;30.90
6520;DHT22;3293;51.690;5.982;2023-08-21T16:50:41;25.10;29.30
6520;DHT22;3293;51.690;5.982;2023-08-21T16:55:42;25.10;29.70
6520;DHT22;3293;51.690;5.982;2023-08-21T17:00:44;25.10;29.90
6520;DHT22;3293;51.690;5.982;2023-08-21T17:05:44;25.00;29.20
6520;DHT22;3293;51.690;5.982;2023-08-21T17:10:44;24.90;28.90
6520;DHT22;3293;51.690;5.982;2023-08-21T17:15:45;24.80;33.60
6520;DHT22;3293;51.690;5.982;2023-08-21T17:20:46;24.70;30.40
6520;DHT22;3293;51.690;5.982;2023-08-21T17:25:46;24.70;33.00
6520;DHT22;3293;51.690;5.982;2023-08-21T17:30:46;24.70;31.80
6520;DHT22;3293;51.690;5.982;2023-08-21T17:35:46;24.60;37.40
6520;DHT22;3293;51.690;5.982;2023-08-21T17:40:46;24.50;34.20
6520;DHT22;3293;51.690;5.982;2023-08-21T17:45:47;24.30;33.90
6520;DHT22;3293;51.690;5.982;2023-08-21T17:50:47;24.20;37.10
6520;DHT22;3293;51.690;5.982;2023-08-21T17:55:48;24.10;38.10
6520;DHT22;3293;51.690;5.982;2023-08-21T18:00:48;24.00;40.20
6520;DHT22;3293;51.690;5.982;2023-08-21T18:05:49;23.90;39.90
6520;DHT22;3293;51.690;5.982;2023-08-21T18:10:49;23.80;41.10
6520;DHT22;3293;51.690;5.982;2023-08-21T18:15:50;23.60;42.00
6520;DHT22;3293;51.690;5.982;2023-08-21T18:20:54;23.50;43.30
6520;DHT22;3293;51.690;5.982;2023-08-21T18:25:55;23.40;45.40
6520;DHT22;3293;51.690;5.982;2023-08-21T18:30:58;23.20;49.20
6520;DHT22;3293;51.690;5.982;2023-08-21T18:35:59;23.00;52.40
6520;DHT22;3293;51.690;5.982;2023-08-21T18:41:00;22.70;60.70
6520;DHT22;3293;51.690;5.982;2023-08-21T18:46:00;22.50;69.50
6520;DHT22;3293;51.690;5.982;2023-08-21T18:51:00;22.20;69.70
6520;DHT22;3293;51.690;5.982;2023-08-21T18:56:02;22.00;72.50
6520;DHT22;3293;51.690;5.982;2023-08-21T19:01:03;21.80;75.60
6520;DHT22;3293;51.690;5.982;2023-08-21T19:06:03;21.50;78.30
6520;DHT22;3293;51.690;5.982;2023-08-21T19:11:05;21.30;82.40
6520;DHT22;3293;51.690;5.982;2023-08-21T19:16:05;21.10;84.20
6520;DHT22;3293;51.690;5.982;2023-08-21T19:21:06;21.00;87.80
6520;DHT22;3293;51.690;5.982;2023-08-21T19:26:07;20.90;90.60
6520;DHT22;3293;51.690;5.982;2023-08-21T19:31:08;20.80;92.60
6520;DHT22;3293;51.690;5.982;2023-08-21T19:36:12;20.60;93.50
6520;DHT22;3293;51.690;5.982;2023-08-21T19:41:14;20.50;94.60
6520;DHT22;3293;51.690;5.982;2023-08-21T19:46:14;20.40;96.20
6520;DHT22;3293;51.690;5.982;2023-08-21T19:51:14;20.30;96.50
6520;DHT22;3293;51.690;5.982;2023-08-21T19:56:14;20.20;97.20
6520;DHT22;3293;51.690;5.982;2023-08-21T20:01:14;20.10;97.70
6520;DHT22;3293;51.690;5.982;2023-08-21T20:06:14;20.00;98.60
6520;DHT22;3293;51.690;5.982;2023-08-21T20:11:15;19.90;99.50
6520;DHT22;3293;51.690;5.982;2023-08-21T20:16:15;19.90;99.90
6520;DHT22;3293;51.690;5.982;2023-08-21T20:21:15;19.80;99.90
6520;DHT22;3293;51.690;5.982;2023-08-21T20:26:20;19.70;99.90
6520;DHT22;3293;51.690;5.982;2023-08-21T20:31:20;19.60;99.90
6520;DHT22;3293;51.690;5.982;2023-08-21T20:36:20;19.50;99.90
6520;DHT22;3293;51.690;5.982;2023-08-21T20:41:21;19.40;99.90
6520;DHT22;3293;51.690;5.982;2023-08-21T20:46:23;19.40;99.90
6520;DHT22;3293;51.690;5.982;2023-08-21T20:51:23;19.30;99.90
6520;DHT22;3293;51.690;5.982;2023-08-21T20:56:26;19.30;99.90
6520;DHT22;3293;51.690;5.982;2023-08-21T21:01:26;19.20;99.90
6520;DHT22;3293;51.690;5.982;2023-08-21T21:06:26;19.10;99.90
6520;DHT22;3293;51.690;5.982;2023-08-21T21:11:29;19.10;99.90
6520;DHT22;3293;51.690;5.982;2023-08-21T21:16:30;19.00;99.90
6520;DHT22;3293;51.690;5.982;2023-08-21T21:21:31;19.00;99.90
6520;DHT22;3293;51.690;5.982;2023-08-21T21:26:31;19.00;99.90
6520;DHT22;3293;51.690;5.982;2023-08-21T21:31:32;19.00;99.90
6520;DHT22;3293;51.690;5.982;2023-08-21T21:36:32;19.00;99.90
6520;DHT22;3293;51.690;5.982;2023-08-21T21:41:33;18.90;99.90
6520;DHT22;3293;51.690;5.982;2023-08-21T21:46:34;18.80;99.90
6520;DHT22;3293;51.690;5.982;2023-08-21T21:51:35;18.70;99.90
6520;DHT22;3293;51.690;5.982;2023-08-21T21:56:35;18.60;99.90
6520;DHT22;3293;51.690;5.982;2023-08-21T22:01:36;18.40;99.90
6520;DHT22;3293;51.690;5.982;2023-08-21T22:06:36;18.30;99.90
6520;DHT22;3293;51.690;5.982;2023-08-21T22:11:40;18.20;99.90
6520;DHT22;3293;51.690;5.982;2023-08-21T22:16:40;18.10;99.90
6520;DHT22;3293;51.690;5.982;2023-08-21T22:21:40;18.10;99.90
6520;DHT22;3293;51.690;5.982;2023-08-21T22:26:41;18.10;99.90
6520;DHT22;3293;51.690;5.982;2023-08-21T22:31:41;18.10;99.90
6520;DHT22;3293;51.690;5.982;2023-08-21T22:36:42;18.10;99.90
6520;DHT22;3293;51.690;5.982;2023-08-21T22:41:43;18.20;99.90
6520;DHT22;3293;51.690;5.982;2023-08-21T22:46:43;18.30;99.90
6520;DHT22;3293;51.690;5.982;2023-08-21T22:51:43;18.40;99.90
6520;DHT22;3293;51.690;5.982;2023-08-21T22:56:44;18.40;99.90
6520;DHT22;3293;51.690;5.982;2023-08-21T23:01:44;18.40;99.90
6520;DHT22;3293;51.690;5.982;2023-08-21T23:06:45;18.40;99.90
6520;DHT22;3293;51.690;5.982;2023-08-21T23:11:48;18.40;99.90
6520;DHT22;3293;51.690;5.982;2023-08-21T23:16:48;18.30;99.90
6520;DHT22;3293;51.690;5.982;2023-08-21T23:21:48;18.30;99.90
6520;DHT22;3293;51.690;5.982;2023-08-21T23:26:48;18.20;99.90
6520;DHT22;3293;51.690;5.982;2023-08-21T23:31:48;18.10;99.90
6520;DHT22;3293;51.690;5.982;2023-08-21T23:36:48;18.10;99.90
6520;DHT22;3293;51.690;5.982;2023-08-21T23:41:48;18.00;99.90
6520;DHT22;3293;51.690;5.982;2023-08-21T23:46:48;18.00;99.90
6520;DHT22;3293;51.690;5.982;2023-08-21T23:51:48;18.00;99.90
6520;DHT22;3293;51.690;5.982;2023-08-21T23:56:48;17.90;99.90
